Time;durP1;ratioP1;P1;durP2;ratioP2;P2;SDS_P1;SDS_P2;PMS_P1;PMS_P2;Temp;Humidity;BMP_temperature;BMP_pressure;BME280_temperature;BME280_humidity;BME280_pressure;Samples;Min_cycle;Max_cycle;Signal;HPM_P1;HPM_P2
2023/04/04 00:00:47;;;;;;;5.00;1.77;;;;;;;;;;5084718;28;20086;-79
2023/04/04 00:03:21;;;;;;;5.15;2.00;;;;;;;;;;5089650;28;20059;-79
2023/04/04 00:05:50;;;;;;;5.68;1.85;;;;;;;;;;5085297;28;20182;-79
2023/04/04 00:08:17;;;;;;;4.15;1.60;;;;;;;;;;5089636;28;20040;-79
2023/04/04 00:10:45;;;;;;;7.45;1.60;;;;;;;;;;5088961;28;20137;-79
2023/04/04 00:13:15;;;;;;;3.50;1.38;;;;;;;;;;5090093;28;20084;-79
2023/04/04 00:16:14;;;;;;;2.45;1.15;;;;;;;;;;5089470;28;20039;-79
2023/04/04 00:18:41;;;;;;;5.13;1.60;;;;;;;;;;5086875;28;20759;-79
2023/04/04 00:21:09;;;;;;;2.97;1.30;;;;;;;;;;5089059;28;20064;-79
2023/04/04 00:23:41;;;;;;;2.75;1.55;;;;;;;;;;5087216;28;20044;-78
2023/04/04 00:26:09;;;;;;;4.53;1.60;;;;;;;;;;5088650;28;20038;-79
2023/04/04 00:28:39;;;;;;;3.05;1.48;;;;;;;;;;5071799;28;20036;-79
2023/04/04 00:31:07;;;;;;;4.93;2.17;;;;;;;;;;5084168;28;20576;-79
2023/04/04 00:33:39;;;;;;;5.57;1.45;;;;;;;;;;5081904;28;20036;-79
2023/04/04 00:36:09;;;;;;;4.25;1.90;;;;;;;;;;5083165;28;20047;-79
2023/04/04 00:38:43;;;;;;;5.63;1.30;;;;;;;;;;5103830;27;20044;-79
2023/04/04 00:41:11;;;;;;;2.67;1.30;;;;;;;;;;5084076;28;20036;-78
2023/04/04 00:43:39;;;;;;;7.65;1.92;;;;;;;;;;5087450;28;20136;-79
2023/04/04 00:46:13;;;;;;;3.70;1.60;;;;;;;;;;5099497;28;20040;-79
2023/04/04 00:48:41;;;;;;;3.88;1.65;;;;;;;;;;5084869;28;20636;-79
2023/04/04 00:51:40;;;;;;;3.70;1.60;;;;;;;;;;5084246;28;20086;-78
2023/04/04 00:54:07;;;;;;;5.68;1.98;;;;;;;;;;5087846;28;20052;-79
2023/04/04 00:56:37;;;;;;;5.28;2.13;;;;;;;;;;5087234;28;20040;-79
2023/04/04 00:59:06;;;;;;;5.03;2.50;;;;;;;;;;5100814;28;20039;-79
2023/04/04 01:01:35;;;;;;;8.98;2.55;;;;;;;;;;5081762;28;20059;-79
2023/04/04 01:04:29;;;;;;;5.25;2.33;;;;;;;;;;5088769;28;20036;-79
2023/04/04 01:06:57;;;;;;;6.50;2.50;;;;;;;;;;5086015;28;21037;-79
2023/04/04 01:09:29;;;;;;;6.93;2.60;;;;;;;;;;5088227;28;20047;-79
2023/04/04 01:12:21;;;;;;;5.15;2.40;;;;;;;;;;5083097;28;20388;-79
2023/04/04 01:15:15;;;;;;;6.45;2.80;;;;;;;;;;5086551;28;20040;-79
2023/04/04 01:17:45;;;;;;;9.38;2.70;;;;;;;;;;5068008;28;20591;-78
2023/04/04 01:20:15;;;;;;;6.53;2.38;;;;;;;;;;5079846;28;20048;-78
2023/04/04 01:22:49;;;;;;;4.93;1.98;;;;;;;;;;5080440;28;20118;-79
2023/04/04 01:25:29;;;;;;;5.38;2.70;;;;;;;;;;5101127;28;20070;-79
2023/04/04 01:28:21;;;;;;;5.00;2.40;;;;;;;;;;5087287;28;20061;-80
2023/04/04 01:30:58;;;;;;;6.72;2.97;;;;;;;;;;5087808;28;20032;-79
2023/04/04 01:34:03;;;;;;;7.32;2.30;;;;;;;;;;5073069;28;20043;-79
2023/04/04 01:36:42;;;;;;;8.52;2.88;;;;;;;;;;5082935;28;20036;-79
2023/04/04 01:39:38;;;;;;;6.20;2.20;;;;;;;;;;5064176;28;20041;-79
2023/04/04 01:42:08;;;;;;;6.63;2.42;;;;;;;;;;5083585;28;20090;-79
2023/04/04 01:44:37;;;;;;;7.68;3.58;;;;;;;;;;5083079;28;20032;-79
2023/04/04 01:47:07;;;;;;;7.80;2.90;;;;;;;;;;5084391;28;20048;-79
2023/04/04 01:49:35;;;;;;;6.72;3.22;;;;;;;;;;5097345;28;20044;-79
2023/04/04 01:52:09;;;;;;;7.47;3.00;;;;;;;;;;5069452;28;20036;-79
2023/04/04 01:55:03;;;;;;;9.85;3.15;;;;;;;;;;5084608;28;20036;-79
2023/04/04 01:57:31;;;;;;;8.00;2.88;;;;;;;;;;5084568;28;20071;-79
2023/04/04 01:59:59;;;;;;;6.00;2.80;;;;;;;;;;5083012;28;20105;-79
2023/04/04 02:02:27;;;;;;;8.75;2.80;;;;;;;;;;5079418;28;20028;-79
2023/04/04 02:04:59;;;;;;;5.25;2.80;;;;;;;;;;5084826;28;20048;-79
2023/04/04 02:07:27;;;;;;;6.43;2.38;;;;;;;;;;5086745;28;20062;-80
2023/04/04 02:10:04;;;;;;;4.85;2.33;;;;;;;;;;5087753;28;20415;-80
2023/04/04 02:12:33;;;;;;;6.43;2.67;;;;;;;;;;5086835;28;20032;-79
2023/04/04 02:15:05;;;;;;;6.88;2.45;;;;;;;;;;5081007;28;20040;-79
2023/04/04 02:17:35;;;;;;;4.15;2.13;;;;;;;;;;5084265;28;20411;-79
2023/04/04 02:20:07;;;;;;;7.55;2.38;;;;;;;;;;5097976;28;20500;-79
2023/04/04 02:22:35;;;;;;;4.90;2.33;;;;;;;;;;5080320;28;20060;-79
2023/04/04 02:25:07;;;;;;;7.78;3.20;;;;;;;;;;5085086;28;20089;-79
2023/04/04 02:27:35;;;;;;;6.47;2.80;;;;;;;;;;5085944;28;20913;-79
2023/04/04 02:30:03;;;;;;;8.85;2.42;;;;;;;;;;5086065;28;20036;-79
2023/04/04 02:32:31;;;;;;;6.38;1.90;;;;;;;;;;5082927;28;20081;-79
2023/04/04 02:34:59;;;;;;;4.70;2.20;;;;;;;;;;5102325;28;20085;-79
2023/04/04 02:37:27;;;;;;;7.13;2.30;;;;;;;;;;5082964;28;20040;-79
2023/04/04 02:40:21;;;;;;;3.95;1.92;;;;;;;;;;5083591;28;20051;-79
2023/04/04 02:43:13;;;;;;;6.80;2.22;;;;;;;;;;5085527;28;20399;-79
2023/04/04 02:45:48;;;;;;;6.15;2.25;;;;;;;;;;5083046;28;20511;-79
2023/04/04 02:48:26;;;;;;;8.25;2.28;;;;;;;;;;5080856;28;20930;-79
2023/04/04 02:51:17;;;;;;;5.88;2.42;;;;;;;;;;5082276;28;20077;-79
2023/04/04 02:53:45;;;;;;;6.95;2.35;;;;;;;;;;5081726;28;20921;-79
2023/04/04 02:56:23;;;;;;;5.85;2.00;;;;;;;;;;5098081;28;20492;-79
2023/04/04 02:58:57;;;;;;;5.45;2.13;;;;;;;;;;5101732;28;20170;-79
2023/04/04 03:01:31;;;;;;;4.20;2.17;;;;;;;;;;5081300;28;20054;-79
2023/04/04 03:04:03;;;;;;;6.15;2.10;;;;;;;;;;5084621;28;20044;-79
2023/04/04 03:06:55;;;;;;;3.83;1.98;;;;;;;;;;5086418;28;20158;-79
2023/04/04 03:09:23;;;;;;;7.88;2.25;;;;;;;;;;5087190;28;21161;-79
2023/04/04 03:12:15;;;;;;;4.88;2.67;;;;;;;;;;5089557;28;20115;-79
2023/04/04 03:14:43;;;;;;;5.20;2.30;;;;;;;;;;5083369;28;20479;-79
2023/04/04 03:17:13;;;;;;;7.30;2.30;;;;;;;;;;5100692;28;20089;-79
2023/04/04 03:20:13;;;;;;;4.63;2.08;;;;;;;;;;5089910;28;20118;-79
2023/04/04 03:22:43;;;;;;;5.82;2.13;;;;;;;;;;5090921;28;20463;-79
2023/04/04 03:25:11;;;;;;;9.10;2.63;;;;;;;;;;5103182;28;20089;-80
2023/04/04 03:27:43;;;;;;;4.93;2.50;;;;;;;;;;5104862;28;20071;-79
2023/04/04 03:30:17;;;;;;;6.20;2.40;;;;;;;;;;5087110;28;20036;-79
2023/04/04 03:32:45;;;;;;;5.88;2.50;;;;;;;;;;5087791;28;20035;-79
2023/04/04 03:35:15;;;;;;;9.73;3.08;;;;;;;;;;5088456;28;20075;-79
2023/04/04 03:38:08;;;;;;;5.72;2.42;;;;;;;;;;5089130;28;20480;-79
2023/04/04 03:40:35;;;;;;;5.13;2.53;;;;;;;;;;5084455;28;20109;-79
2023/04/04 03:43:09;;;;;;;8.95;2.53;;;;;;;;;;5083218;28;20105;-79
2023/04/04 03:45:37;;;;;;;4.97;2.30;;;;;;;;;;5088052;28;20028;-79
2023/04/04 03:48:32;;;;;;;6.15;2.80;;;;;;;;;;5087239;28;20039;-79
2023/04/04 03:51:09;;;;;;;5.55;2.63;;;;;;;;;;5105660;27;20036;-79
2023/04/04 03:53:39;;;;;;;6.10;2.58;;;;;;;;;;5088965;28;20059;-79
2023/04/04 03:56:07;;;;;;;5.47;2.33;;;;;;;;;;5088386;28;20040;-79
2023/04/04 03:58:35;;;;;;;5.38;3.05;;;;;;;;;;5087483;28;20560;-79
2023/04/04 04:01:11;;;;;;;6.68;2.80;;;;;;;;;;5084309;28;20040;-79
2023/04/04 04:03:39;;;;;;;8.32;2.65;;;;;;;;;;5097060;28;20072;-79
2023/04/04 04:06:07;;;;;;;9.65;2.90;;;;;;;;;;5088422;28;20063;-79
2023/04/04 04:08:35;;;;;;;5.63;2.28;;;;;;;;;;5087589;28;20040;-79
2023/04/04 04:11:04;;;;;;;12.63;3.45;;;;;;;;;;5086150;28;20047;-79
2023/04/04 04:13:37;;;;;;;8.52;2.45;;;;;;;;;;5088535;28;20051;-79
2023/04/04 04:16:06;;;;;;;6.63;2.28;;;;;;;;;;5088746;28;20959;-79
2023/04/04 04:18:40;;;;;;;8.60;2.65;;;;;;;;;;5087260;28;20040;-79
2023/04/04 04:21:13;;;;;;;7.03;2.53;;;;;;;;;;5086846;28;20039;-79
2023/04/04 04:24:05;;;;;;;5.88;2.50;;;;;;;;;;5086691;28;20036;-79
2023/04/04 04:26:33;;;;;;;5.22;2.05;;;;;;;;;;5083120;28;20052;-79
2023/04/04 04:29:01;;;;;;;5.25;1.92;;;;;;;;;;5103844;28;20500;-80
2023/04/04 04:31:31;;;;;;;4.15;1.80;;;;;;;;;;5084336;28;20549;-79
2023/04/04 04:34:07;;;;;;;6.90;2.13;;;;;;;;;;5100689;27;20044;-79
2023/04/04 04:36:37;;;;;;;6.13;2.30;;;;;;;;;;5088611;28;20040;-79
2023/04/04 04:39:29;;;;;;;7.20;2.10;;;;;;;;;;5089963;28;20040;-79
2023/04/04 04:42:21;;;;;;;4.78;2.05;;;;;;;;;;5087871;28;20166;-79
2023/04/04 04:45:15;;;;;;;7.28;2.20;;;;;;;;;;5087433;28;20035;-79
2023/04/04 04:47:53;;;;;;;6.72;1.80;;;;;;;;;;5070494;28;20047;-79
2023/04/04 04:50:21;;;;;;;7.25;2.60;;;;;;;;;;5089511;28;20510;-79
2023/04/04 04:52:53;;;;;;;5.93;1.90;;;;;;;;;;5087177;28;20052;-79
2023/04/04 04:55:21;;;;;;;3.72;1.73;;;;;;;;;;5071050;28;20132;-79
2023/04/04 04:58:15;;;;;;;5.72;1.98;;;;;;;;;;5087898;28;20039;-79
2023/04/04 05:00:47;;;;;;;4.10;1.55;;;;;;;;;;5083153;28;20040;-79
2023/04/04 05:03:15;;;;;;;4.35;1.95;;;;;;;;;;5069952;28;20054;-79
2023/04/04 05:05:47;;;;;;;4.07;1.63;;;;;;;;;;5087297;28;20514;-79
2023/04/04 05:08:21;;;;;;;5.00;2.53;;;;;;;;;;5085698;28;20044;-79
2023/04/04 05:11:31;;;;;;;6.15;1.80;;;;;;;;;;5074628;28;20048;-79
2023/04/04 05:13:59;;;;;;;3.88;1.90;;;;;;;;;;5067024;28;20046;-79
2023/04/04 05:16:37;;;;;;;6.50;1.92;;;;;;;;;;5080128;28;20044;-78
2023/04/04 05:19:11;;;;;;;3.97;2.05;;;;;;;;;;5064263;28;20044;-78
2023/04/04 05:21:49;;;;;;;4.63;1.80;;;;;;;;;;5065087;28;20210;-78
2023/04/04 05:24:27;;;;;;;8.60;2.42;;;;;;;;;;5056735;28;20047;-78
2023/04/04 05:26:55;;;;;;;9.05;2.60;;;;;;;;;;5065152;28;20056;-78
2023/04/04 05:29:23;;;;;;;9.30;2.67;;;;;;;;;;5060194;28;20553;-78
2023/04/04 05:31:55;;;;;;;6.47;2.60;;;;;;;;;;5080206;28;20054;-78
2023/04/04 05:34:23;;;;;;;10.30;3.25;;;;;;;;;;5079835;28;20068;-80
2023/04/04 05:36:51;;;;;;;4.53;2.03;;;;;;;;;;5082988;28;20631;-79
2023/04/04 05:39:19;;;;;;;6.13;2.22;;;;;;;;;;5048021;28;20198;-80
2023/04/04 05:42:04;;;;;;;5.45;2.22;;;;;;;;;;5083855;28;20044;-79
2023/04/04 05:44:36;;;;;;;11.63;2.63;;;;;;;;;;5099920;28;20036;-79
2023/04/04 05:47:05;;;;;;;7.03;2.17;;;;;;;;;;5080090;28;20454;-79
2023/04/04 05:49:33;;;;;;;6.53;2.42;;;;;;;;;;5083922;28;20047;-79
2023/04/04 05:52:01;;;;;;;7.38;2.42;;;;;;;;;;5085493;28;20063;-79
2023/04/04 05:54:31;;;;;;;5.72;2.42;;;;;;;;;;5097646;28;20113;-79
2023/04/04 05:57:03;;;;;;;8.95;2.63;;;;;;;;;;5082345;28;20051;-79
2023/04/04 05:59:43;;;;;;;6.07;2.65;;;;;;;;;;5067485;28;20131;-79
2023/04/04 06:02:19;;;;;;;4.10;1.92;;;;;;;;;;5067085;28;20032;-79
2023/04/04 06:04:53;;;;;;;6.85;2.40;;;;;;;;;;5080734;28;20055;-80
2023/04/04 06:07:43;;;;;;;3.45;1.67;;;;;;;;;;5080774;28;20043;-79
2023/04/04 06:10:13;;;;;;;22.75;2.72;;;;;;;;;;5080583;28;20044;-79
2023/04/04 06:12:41;;;;;;;5.00;1.85;;;;;;;;;;5084020;28;20519;-79
2023/04/04 06:15:11;;;;;;;7.28;1.73;;;;;;;;;;5084312;28;20047;-79
2023/04/04 06:17:41;;;;;;;7.32;1.65;;;;;;;;;;5088642;28;20036;-79
2023/04/04 06:20:09;;;;;;;3.70;1.70;;;;;;;;;;5081966;28;20519;-79
2023/04/04 06:23:03;;;;;;;3.83;2.08;;;;;;;;;;5085599;28;20031;-79
2023/04/04 06:25:37;;;;;;;9.90;2.40;;;;;;;;;;5088099;28;20414;-79
2023/04/04 06:28:05;;;;;;;7.25;2.30;;;;;;;;;;5086694;28;20105;-79
2023/04/04 06:30:36;;;;;;;5.93;2.00;;;;;;;;;;5081356;28;20042;-79
2023/04/04 06:33:07;;;;;;;5.25;2.00;;;;;;;;;;5069639;28;20032;-79
2023/04/04 06:35:43;;;;;;;4.70;2.30;;;;;;;;;;5086735;28;20040;-79
2023/04/04 06:38:13;;;;;;;7.25;2.45;;;;;;;;;;5079118;28;20098;-79
2023/04/04 06:40:41;;;;;;;6.63;2.22;;;;;;;;;;5103544;28;20036;-79
2023/04/04 06:43:35;;;;;;;6.03;2.20;;;;;;;;;;5084532;28;20040;-79
2023/04/04 06:46:53;;;;;;;7.43;2.78;;;;;;;;;;5074546;28;20055;-80
2023/04/04 06:49:24;;;;;;;5.28;2.40;;;;;;;;;;5072515;28;20044;-79
2023/04/04 06:51:53;;;;;;;6.53;2.10;;;;;;;;;;5084674;28;20036;-79
2023/04/04 06:54:21;;;;;;;10.63;2.40;;;;;;;;;;5084189;28;20507;-79
2023/04/04 06:56:53;;;;;;;5.25;2.08;;;;;;;;;;5081877;28;20105;-79
2023/04/04 06:59:21;;;;;;;7.60;1.95;;;;;;;;;;5082592;28;20036;-80
2023/04/04 07:01:53;;;;;;;7.20;2.03;;;;;;;;;;5097525;28;20531;-80
2023/04/04 07:04:21;;;;;;;4.50;1.52;;;;;;;;;;5064728;28;20513;-80
2023/04/04 07:06:49;;;;;;;3.20;1.58;;;;;;;;;;5085473;28;20123;-79
2023/04/04 07:09:21;;;;;;;2.53;1.20;;;;;;;;;;5082589;28;20044;-79
2023/04/04 07:12:21;;;;;;;5.47;1.85;;;;;;;;;;5083599;28;20051;-79
2023/04/04 07:14:50;;;;;;;5.13;1.70;;;;;;;;;;5083696;28;20040;-80
2023/04/04 07:17:43;;;;;;;7.90;1.50;;;;;;;;;;5084347;28;20326;-80
2023/04/04 07:20:11;;;;;;;2.97;1.55;;;;;;;;;;5078098;28;20050;-79
2023/04/04 07:22:39;;;;;;;3.58;1.27;;;;;;;;;;5083527;28;20058;-79
2023/04/04 07:25:08;;;;;;;8.10;1.45;;;;;;;;;;5083657;28;20044;-80
2023/04/04 07:28:01;;;;;;;2.47;1.38;;;;;;;;;;5085880;28;20043;-79
2023/04/04 07:30:41;;;;;;;3.22;1.20;;;;;;;;;;5086911;28;20078;-79
2023/04/04 07:33:15;;;;;;;5.07;1.40;;;;;;;;;;5085597;28;20040;-80
2023/04/04 07:35:48;;;;;;;2.53;1.25;;;;;;;;;;5084243;28;20040;-79
2023/04/04 07:38:15;;;;;;;4.50;1.05;;;;;;;;;;5085183;28;20139;-79
2023/04/04 07:40:50;;;;;;;5.93;1.50;;;;;;;;;;5084308;28;20032;-80
2023/04/04 07:43:17;;;;;;;5.03;1.30;;;;;;;;;;5086419;28;20028;-80
2023/04/04 07:45:49;;;;;;;2.00;1.10;;;;;;;;;;5083480;28;20502;-80
2023/04/04 07:48:26;;;;;;;3.42;1.40;;;;;;;;;;5079533;28;20039;-80
2023/04/04 07:50:55;;;;;;;3.05;1.00;;;;;;;;;;5086534;28;20043;-80
2023/04/04 07:53:23;;;;;;;3.58;1.30;;;;;;;;;;5089821;28;20059;-80
2023/04/04 07:55:51;;;;;;;5.78;1.60;;;;;;;;;;5088804;28;20097;-80
2023/04/04 07:58:20;;;;;;;2.85;1.30;;;;;;;;;;5088202;28;20039;-80
2023/04/04 08:00:47;;;;;;;4.97;1.30;;;;;;;;;;5088583;28;20119;-80
2023/04/04 08:03:16;;;;;;;4.18;1.27;;;;;;;;;;5087159;28;20051;-80
2023/04/04 08:06:07;;;;;;;4.80;1.80;;;;;;;;;;5103031;27;20028;-79
2023/04/04 08:08:35;;;;;;;4.60;1.20;;;;;;;;;;5088029;28;20040;-80
2023/04/04 08:11:03;;;;;;;5.90;1.35;;;;;;;;;;5088535;28;20109;-80
2023/04/04 08:13:35;;;;;;;4.78;1.10;;;;;;;;;;5089974;28;20067;-80
2023/04/04 08:16:03;;;;;;;4.40;1.02;;;;;;;;;;5084784;28;20040;-79
2023/04/04 08:18:33;;;;;;;4.68;1.10;;;;;;;;;;5085805;28;20040;-80
2023/04/04 08:21:04;;;;;;;4.13;0.98;;;;;;;;;;5088052;28;20557;-80
2023/04/04 08:23:33;;;;;;;6.18;1.08;;;;;;;;;;5083452;28;20048;-80
2023/04/04 08:26:01;;;;;;;1.77;0.88;;;;;;;;;;5084138;28;20035;-80
2023/04/04 08:28:53;;;;;;;6.82;1.25;;;;;;;;;;5084423;28;20043;-80
2023/04/04 08:31:22;;;;;;;2.50;0.90;;;;;;;;;;5087559;28;20044;-80
2023/04/04 08:34:15;;;;;;;2.60;1.08;;;;;;;;;;5085638;28;20044;-81
2023/04/04 08:36:43;;;;;;;2.85;1.27;;;;;;;;;;5071156;28;20195;-80
2023/04/04 08:39:11;;;;;;;4.53;1.38;;;;;;;;;;5066542;28;20044;-81
2023/04/04 08:41:44;;;;;;;3.60;0.88;;;;;;;;;;5086031;28;20127;-79
2023/04/04 08:44:19;;;;;;;5.28;1.05;;;;;;;;;;5101572;28;20063;-79
2023/04/04 08:46:51;;;;;;;4.00;1.10;;;;;;;;;;5081892;28;20127;-80
2023/04/04 08:49:21;;;;;;;3.00;1.20;;;;;;;;;;5082313;28;20032;-79
2023/04/04 08:51:56;;;;;;;4.18;1.20;;;;;;;;;;5099236;28;20041;-80
2023/04/04 08:54:30;;;;;;;5.25;1.00;;;;;;;;;;5097740;28;20105;-80
2023/04/04 08:56:57;;;;;;;5.22;1.25;;;;;;;;;;5084639;28;20040;-80
2023/04/04 08:59:25;;;;;;;2.28;0.90;;;;;;;;;;5081686;28;20044;-79
2023/04/04 09:02:08;;;;;;;3.30;0.82;;;;;;;;;;5083948;28;20058;-80
2023/04/04 09:04:47;;;;;;;3.08;1.00;;;;;;;;;;5085402;28;20113;-80
2023/04/04 09:07:31;;;;;;;3.10;0.93;;;;;;;;;;5096880;28;20036;-80
2023/04/04 09:10:00;;;;;;;3.58;0.90;;;;;;;;;;5084850;28;20036;-80
2023/04/04 09:12:31;;;;;;;3.33;0.95;;;;;;;;;;5070638;28;20504;-80
2023/04/04 09:15:00;;;;;;;2.53;0.85;;;;;;;;;;5084703;28;20032;-80
2023/04/04 09:17:27;;;;;;;2.25;1.00;;;;;;;;;;5103922;28;20058;-80
2023/04/04 09:19:55;;;;;;;5.05;1.10;;;;;;;;;;5098425;28;20058;-80
2023/04/04 09:22:23;;;;;;;6.20;0.90;;;;;;;;;;5085986;28;20106;-80
2023/04/04 09:24:51;;;;;;;2.78;1.00;;;;;;;;;;5088724;28;20484;-80
2023/04/04 09:27:19;;;;;;;2.85;1.00;;;;;;;;;;5085470;28;20040;-80
2023/04/04 09:29:53;;;;;;;5.53;1.30;;;;;;;;;;5083228;28;20067;-80
2023/04/04 09:32:23;;;;;;;4.70;1.10;;;;;;;;;;5084207;28;20052;-80
2023/04/04 09:34:57;;;;;;;3.65;0.98;;;;;;;;;;5082519;28;20040;-80
2023/04/04 09:37:29;;;;;;;3.08;1.27;;;;;;;;;;5082630;28;20042;-79
2023/04/04 09:39:57;;;;;;;5.32;1.20;;;;;;;;;;5084847;28;20042;-80
2023/04/04 09:42:25;;;;;;;2.63;0.90;;;;;;;;;;5087147;28;20142;-81
2023/04/04 09:44:57;;;;;;;2.42;1.00;;;;;;;;;;5097426;28;20036;-81
2023/04/04 09:47:26;;;;;;;2.95;1.05;;;;;;;;;;5084152;28;20055;-81
2023/04/04 09:50:22;;;;;;;4.15;1.20;;;;;;;;;;5084130;28;20028;-82
2023/04/04 09:55:50;;;;;;;3.65;0.90;;;;;;;;;;5084680;28;20113;-82
2023/04/04 09:58:24;;;;;;;1.88;0.80;;;;;;;;;;5077323;28;20047;-80
2023/04/04 10:01:17;;;;;;;3.60;0.93;;;;;;;;;;5082668;28;20032;-80
2023/04/04 10:03:53;;;;;;;1.45;0.60;;;;;;;;;;5081363;28;20047;-80
2023/04/04 10:06:26;;;;;;;2.03;0.75;;;;;;;;;;5079450;28;20061;-80
2023/04/04 10:09:19;;;;;;;1.65;0.73;;;;;;;;;;5079754;28;20062;-80
2023/04/04 10:12:08;;;;;;;2.40;0.50;;;;;;;;;;5082016;28;20043;-80
2023/04/04 10:14:35;;;;;;;1.67;0.70;;;;;;;;;;5077196;28;20156;-80
2023/04/04 10:17:09;;;;;;;1.40;0.60;;;;;;;;;;5095865;28;20127;-81
2023/04/04 10:20:05;;;;;;;1.83;0.77;;;;;;;;;;5083689;28;20040;-80
2023/04/04 10:22:34;;;;;;;5.95;1.00;;;;;;;;;;5082750;28;20050;-80
2023/04/04 10:25:02;;;;;;;2.90;0.90;;;;;;;;;;5083286;28;20040;-80
2023/04/04 10:27:57;;;;;;;2.72;1.02;;;;;;;;;;5087557;28;20032;-80
2023/04/04 10:33:41;;;;;;;2.65;0.80;;;;;;;;;;5084644;28;20036;-80
2023/04/04 10:36:20;;;;;;;4.60;0.77;;;;;;;;;;5087196;28;20040;-81
2023/04/04 10:38:55;;;;;;;8.85;0.70;;;;;;;;;;5082508;28;20093;-81
2023/04/04 10:41:25;;;;;;;4.03;0.70;;;;;;;;;;5085038;28;20039;-81
2023/04/04 10:43:55;;;;;;;2.22;0.63;;;;;;;;;;5086109;28;20032;-81
2023/04/04 10:46:29;;;;;;;2.60;0.77;;;;;;;;;;5084360;28;20071;-81
2023/04/04 10:49:03;;;;;;;1.83;0.73;;;;;;;;;;5083477;28;20105;-80
2023/04/04 10:51:31;;;;;;;3.63;0.90;;;;;;;;;;5083228;28;20127;-80
2023/04/04 10:54:26;;;;;;;4.47;0.88;;;;;;;;;;5086162;28;20028;-80
2023/04/04 10:56:55;;;;;;;4.25;1.20;;;;;;;;;;5083407;28;20093;-81
2023/04/04 10:59:24;;;;;;;3.20;0.90;;;;;;;;;;5081672;28;20392;-82
2023/04/04 11:02:01;;;;;;;1.63;0.77;;;;;;;;;;5083710;28;20044;-81
2023/04/04 11:04:34;;;;;;;3.53;0.90;;;;;;;;;;5080743;28;20067;-82
2023/04/04 11:07:08;;;;;;;3.10;0.90;;;;;;;;;;5100766;28;20113;-81
2023/04/04 11:09:50;;;;;;;2.90;0.90;;;;;;;;;;5084418;28;20032;-81
2023/04/04 11:12:25;;;;;;;4.95;1.15;;;;;;;;;;5086063;28;20404;-81
2023/04/04 11:15:08;;;;;;;1.27;0.55;;;;;;;;;;5086557;28;20510;-82
2023/04/04 11:17:53;;;;;;;3.28;0.80;;;;;;;;;;5085179;28;20036;-81
2023/04/04 11:20:23;;;;;;;2.85;1.00;;;;;;;;;;5077540;28;20452;-80
2023/04/04 11:23:08;;;;;;;2.10;0.93;;;;;;;;;;5083975;28;20075;-80
2023/04/04 11:25:41;;;;;;;2.45;1.00;;;;;;;;;;5095036;28;20503;-80
2023/04/04 11:28:24;;;;;;;2.15;0.80;;;;;;;;;;5081793;28;20040;-79
2023/04/04 11:31:33;;;;;;;3.08;0.90;;;;;;;;;;5080772;28;20101;-79
2023/04/04 11:34:08;;;;;;;4.03;1.10;;;;;;;;;;5026163;28;20064;-79
2023/04/04 11:37:19;;;;;;;3.95;1.10;;;;;;;;;;5031987;28;20040;-79
2023/04/04 11:39:57;;;;;;;3.45;0.90;;;;;;;;;;5046102;28;20057;-79
2023/04/04 11:42:32;;;;;;;2.92;1.10;;;;;;;;;;5048609;28;20285;-79
2023/04/04 11:45:06;;;;;;;3.85;1.15;;;;;;;;;;5048845;28;20464;-79
2023/04/04 11:47:33;;;;;;;2.20;0.82;;;;;;;;;;5046097;28;20052;-79
2023/04/04 11:50:07;;;;;;;2.90;1.00;;;;;;;;;;5050472;28;20095;-79
2023/04/04 11:52:41;;;;;;;5.63;1.58;;;;;;;;;;5046986;28;20056;-82
2023/04/04 11:55:17;;;;;;;6.85;1.42;;;;;;;;;;5028698;28;20048;-82
2023/04/04 11:57:46;;;;;;;3.58;1.35;;;;;;;;;;5024099;28;20055;-80
2023/04/04 12:00:31;;;;;;;2.55;0.95;;;;;;;;;;5013849;28;20062;-80
2023/04/04 12:02:59;;;;;;;4.38;1.60;;;;;;;;;;5045807;28;20149;-80
2023/04/04 12:05:31;;;;;;;3.50;0.95;;;;;;;;;;5078311;28;20088;-80
2023/04/04 12:08:01;;;;;;;2.92;1.20;;;;;;;;;;5082372;28;20572;-80
2023/04/04 12:10:34;;;;;;;6.25;1.17;;;;;;;;;;5087539;28;20040;-80
2023/04/04 12:13:04;;;;;;;2.92;1.15;;;;;;;;;;5091783;28;20040;-80
2023/04/04 12:15:32;;;;;;;4.07;1.13;;;;;;;;;;5089561;28;20549;-80
2023/04/04 12:18:19;;;;;;;6.40;1.88;;;;;;;;;;5088481;28;20043;-80
2023/04/04 12:20:55;;;;;;;3.15;0.98;;;;;;;;;;5087472;28;20036;-80
2023/04/04 12:23:23;;;;;;;4.32;1.40;;;;;;;;;;5085642;28;20085;-80
2023/04/04 12:25:53;;;;;;;3.60;1.10;;;;;;;;;;5100364;28;20070;-80
2023/04/04 12:28:27;;;;;;;3.95;0.80;;;;;;;;;;5085395;28;20368;-80
2023/04/04 12:30:55;;;;;;;2.28;0.95;;;;;;;;;;5089057;28;20039;-80
2023/04/04 12:33:23;;;;;;;5.43;1.17;;;;;;;;;;5086408;28;20054;-80
2023/04/04 12:35:52;;;;;;;2.72;1.10;;;;;;;;;;5085663;28;20515;-80
2023/04/04 12:38:19;;;;;;;3.95;1.33;;;;;;;;;;5086303;28;20040;-80
2023/04/04 12:40:52;;;;;;;2.60;1.20;;;;;;;;;;5070544;28;20089;-80
2023/04/04 12:43:19;;;;;;;2.72;1.10;;;;;;;;;;5086097;28;20060;-80
2023/04/04 12:45:50;;;;;;;7.35;3.00;;;;;;;;;;5085177;28;20039;-80
2023/04/04 12:48:28;;;;;;;2.58;0.90;;;;;;;;;;5088234;28;20123;-80
2023/04/04 12:50:59;;;;;;;4.35;1.55;;;;;;;;;;5086199;28;20043;-80
2023/04/04 12:53:31;;;;;;;5.88;1.67;;;;;;;;;;5086746;28;20044;-80
2023/04/04 12:56:02;;;;;;;7.32;1.95;;;;;;;;;;5085353;28;20040;-80
2023/04/04 12:58:39;;;;;;;4.70;1.92;;;;;;;;;;5103383;28;20056;-80
2023/04/04 13:01:08;;;;;;;4.70;1.73;;;;;;;;;;5079536;28;20072;-80
2023/04/04 13:03:36;;;;;;;9.32;2.67;;;;;;;;;;5086451;28;20057;-80
2023/04/04 13:06:18;;;;;;;5.28;1.60;;;;;;;;;;5081260;28;20040;-80
2023/04/04 13:08:54;;;;;;;4.72;1.83;;;;;;;;;;5103266;28;20160;-81
2023/04/04 13:11:22;;;;;;;4.65;1.73;;;;;;;;;;5087559;28;20052;-80
2023/04/04 13:14:02;;;;;;;4.80;2.15;;;;;;;;;;5087977;28;20036;-81
2023/04/04 13:16:37;;;;;;;4.82;1.90;;;;;;;;;;5079247;28;20125;-81
2023/04/04 13:19:05;;;;;;;5.45;2.05;;;;;;;;;;5085250;28;20061;-81
2023/04/04 13:21:33;;;;;;;3.80;1.70;;;;;;;;;;5087482;28;20519;-81
2023/04/04 13:24:49;;;;;;;4.75;1.95;;;;;;;;;;5087498;28;20934;-81
2023/04/04 13:27:21;;;;;;;7.57;1.83;;;;;;;;;;5081634;28;20063;-81
2023/04/04 13:29:49;;;;;;;4.80;1.40;;;;;;;;;;5078372;28;20032;-81
2023/04/04 13:32:17;;;;;;;5.15;2.00;;;;;;;;;;5082749;28;20491;-81
2023/04/04 13:34:45;;;;;;;6.53;1.95;;;;;;;;;;5096886;28;20042;-81
2023/04/04 13:37:17;;;;;;;5.05;2.22;;;;;;;;;;5088509;28;20048;-81
2023/04/04 13:40:09;;;;;;;4.25;1.70;;;;;;;;;;5086158;28;20074;-81
2023/04/04 13:42:42;;;;;;;6.50;1.42;;;;;;;;;;5083480;28;20047;-80
2023/04/04 13:45:09;;;;;;;4.65;1.83;;;;;;;;;;5079698;28;20532;-80
2023/04/04 13:47:37;;;;;;;5.03;1.50;;;;;;;;;;5079665;28;20056;-81
2023/04/04 13:50:09;;;;;;;5.63;1.60;;;;;;;;;;5065673;28;20052;-81
2023/04/04 13:52:37;;;;;;;4.47;1.92;;;;;;;;;;5087125;28;20047;-80
2023/04/04 13:55:29;;;;;;;3.65;1.42;;;;;;;;;;5102946;28;20028;-80
2023/04/04 13:57:57;;;;;;;2.92;1.08;;;;;;;;;;5083030;28;20503;-80
2023/04/04 14:00:25;;;;;;;4.20;1.33;;;;;;;;;;5083736;28;20035;-80
2023/04/04 14:02:59;;;;;;;4.32;1.58;;;;;;;;;;5084207;28;20416;-81
2023/04/04 14:05:51;;;;;;;3.53;1.20;;;;;;;;;;5086383;28;20040;-81
2023/04/04 14:08:19;;;;;;;5.95;1.20;;;;;;;;;;5087516;28;20989;-80
2023/04/04 14:10:47;;;;;;;3.60;1.13;;;;;;;;;;5085738;28;20051;-80
2023/04/04 14:13:19;;;;;;;2.15;1.05;;;;;;;;;;5084886;28;20035;-80
2023/04/04 14:15:52;;;;;;;5.30;1.83;;;;;;;;;;5084930;28;20499;-80
2023/04/04 14:18:19;;;;;;;4.18;1.00;;;;;;;;;;5088380;28;20127;-80
2023/04/04 14:20:47;;;;;;;2.17;0.73;;;;;;;;;;5087226;28;20036;-80
2023/04/04 14:23:20;;;;;;;2.75;1.10;;;;;;;;;;5066833;28;20492;-80
2023/04/04 14:25:49;;;;;;;3.25;0.98;;;;;;;;;;5084786;28;20054;-80
2023/04/04 14:28:17;;;;;;;1.88;1.00;;;;;;;;;;5085177;28;20036;-80
2023/04/04 14:30:45;;;;;;;4.03;0.95;;;;;;;;;;5080565;28;20044;-80
2023/04/04 14:33:13;;;;;;;2.83;0.98;;;;;;;;;;5087494;28;20051;-80
2023/04/04 14:35:41;;;;;;;2.38;0.75;;;;;;;;;;5085398;28;20400;-80
2023/04/04 14:38:13;;;;;;;4.13;1.10;;;;;;;;;;5083247;28;20064;-80
2023/04/04 14:41:05;;;;;;;1.60;0.75;;;;;;;;;;5085015;28;20385;-80
2023/04/04 14:43:57;;;;;;;2.72;1.20;;;;;;;;;;5087096;28;20047;-80
2023/04/04 14:46:25;;;;;;;3.63;0.82;;;;;;;;;;5100537;28;20474;-80
2023/04/04 14:48:53;;;;;;;2.72;1.08;;;;;;;;;;5086516;28;20043;-80
2023/04/04 14:51:21;;;;;;;2.70;1.00;;;;;;;;;;5085033;28;20086;-80
2023/04/04 14:53:53;;;;;;;5.57;1.15;;;;;;;;;;5087065;28;20522;-80
2023/04/04 14:56:21;;;;;;;4.03;1.10;;;;;;;;;;5086329;28;20036;-80
2023/04/04 14:58:51;;;;;;;3.70;1.20;;;;;;;;;;5080113;28;20368;-80
2023/04/04 15:01:21;;;;;;;3.67;1.10;;;;;;;;;;5084110;28;20123;-80
2023/04/04 15:03:49;;;;;;;2.85;0.98;;;;;;;;;;5087701;28;20088;-80
2023/04/04 15:06:41;;;;;;;4.10;1.05;;;;;;;;;;5090664;28;20024;-80
2023/04/04 15:09:33;;;;;;;4.40;1.40;;;;;;;;;;5090047;28;20035;-80
2023/04/04 15:12:01;;;;;;;5.65;1.23;;;;;;;;;;5090931;28;20050;-80
2023/04/04 15:14:29;;;;;;;3.42;1.27;;;;;;;;;;5067032;28;20040;-80
2023/04/04 15:17:01;;;;;;;2.80;1.00;;;;;;;;;;5089756;28;20040;-80
2023/04/04 15:19:29;;;;;;;4.55;1.30;;;;;;;;;;5089992;28;20089;-80
2023/04/04 15:21:57;;;;;;;2.97;1.20;;;;;;;;;;5084664;28;20454;-80
2023/04/04 15:24:35;;;;;;;2.85;0.90;;;;;;;;;;5090023;28;20375;-80
2023/04/04 15:27:03;;;;;;;3.95;1.23;;;;;;;;;;5089097;28;20051;-80
2023/04/04 15:29:31;;;;;;;2.10;0.90;;;;;;;;;;5090171;28;20047;-80
2023/04/04 15:32:03;;;;;;;2.88;1.10;;;;;;;;;;5086679;28;20559;-80